Time;durP1;ratioP1;P1;durP2;ratioP2;P2;SDS_P1;SDS_P2;PMS_P1;PMS_P2;Temp;Humidity;BMP_temperature;BMP_pressure;BME280_temperature;BME280_humidity;BME280_pressure;Samples;Min_cycle;Max_cycle;Signal;HPM_P1;HPM_P2
2022/03/30 00:00:28;;;;;;;26.52;16.98;;;13.20;51.00;;;;;;5013062;28;20400;-63
2022/03/30 00:02:54;;;;;;;35.25;19.58;;;13.20;51.10;;;;;;5013289;28;20392;-62
2022/03/30 00:05:20;;;;;;;41.20;25.00;;;13.30;50.90;;;;;;5013040;28;20025;-63
2022/03/30 00:07:51;;;;;;;30.65;20.23;;;13.10;51.30;;;;;;5013075;28;20029;-63
2022/03/30 00:10:17;;;;;;;26.08;14.85;;;12.90;52.20;;;;;;5013441;28;20029;-63
2022/03/30 00:12:42;;;;;;;18.90;12.18;;;12.60;53.30;;;;;;5013153;28;20026;-63
2022/03/30 00:15:08;;;;;;;19.13;11.68;;;12.40;53.80;;;;;;5012880;28;20543;-62
2022/03/30 00:17:34;;;;;;;21.60;11.25;;;12.50;53.50;;;;;;5013145;28;20018;-63
2022/03/30 00:20:02;;;;;;;19.15;11.25;;;12.60;52.40;;;;;;5012846;28;20037;-62
2022/03/30 00:22:28;;;;;;;18.48;11.35;;;12.70;52.20;;;;;;5013222;28;20026;-63
2022/03/30 00:24:54;;;;;;;20.60;13.57;;;12.80;51.90;;;;;;5013091;28;20535;-62
2022/03/30 00:27:20;;;;;;;15.98;11.40;;;12.90;51.50;;;;;;5013116;28;20022;-62
2022/03/30 00:29:47;;;;;;;25.65;14.73;;;12.90;51.20;;;;;;5012963;28;20057;-62
2022/03/30 00:32:13;;;;;;;24.10;14.65;;;12.90;51.20;;;;;;5013202;28;20022;-62
2022/03/30 00:34:41;;;;;;;20.67;13.68;;;12.90;51.10;;;;;;5012897;28;20034;-62
2022/03/30 00:37:08;;;;;;;31.42;18.15;;;12.90;51.30;;;;;;5012952;28;20030;-63
2022/03/30 00:39:35;;;;;;;23.67;15.43;;;12.70;51.20;;;;;;5016605;28;20034;-63
2022/03/30 00:42:01;;;;;;;24.27;15.00;;;12.60;51.70;;;;;;5016557;28;20025;-62
2022/03/30 00:44:27;;;;;;;28.42;17.83;;;12.60;51.40;;;;;;5016470;28;20022;-63
2022/03/30 00:46:52;;;;;;;24.92;16.17;;;12.60;51.30;;;;;;5016443;28;20416;-62
2022/03/30 00:49:18;;;;;;;24.63;15.50;;;12.60;51.40;;;;;;5016272;28;20061;-62
2022/03/30 00:51:44;;;;;;;27.05;17.40;;;12.60;51.80;;;;;;5016396;28;20028;-63
2022/03/30 00:54:11;;;;;;;23.52;14.25;;;12.60;51.40;;;;;;5016249;28;20026;-62
2022/03/30 00:56:39;;;;;;;20.98;14.05;;;12.50;51.50;;;;;;5016261;28;20022;-63
2022/03/30 00:59:06;;;;;;;23.27;14.80;;;12.50;51.90;;;;;;5016448;28;20076;-63
2022/03/30 01:01:33;;;;;;;20.65;12.90;;;12.40;52.00;;;;;;5016070;28;20038;-62
2022/03/30 01:04:03;;;;;;;20.67;13.63;;;12.40;51.70;;;;;;5016236;28;20489;-63
2022/03/30 01:06:29;;;;;;;21.45;13.05;;;12.40;51.90;;;;;;5016321;28;20049;-62
2022/03/30 01:08:55;;;;;;;20.20;13.02;;;12.30;51.90;;;;;;5015983;28;20029;-62
2022/03/30 01:11:22;;;;;;;22.38;13.23;;;12.30;51.80;;;;;;5016198;28;20104;-63
2022/03/30 01:13:48;;;;;;;20.58;12.13;;;12.30;52.10;;;;;;5016004;28;20022;-62
2022/03/30 01:16:16;;;;;;;18.83;11.70;;;12.30;52.10;;;;;;5015480;28;20180;-63
2022/03/30 01:18:42;;;;;;;18.52;11.60;;;12.30;51.90;;;;;;5015850;28;20022;-62
2022/03/30 01:21:08;;;;;;;19.45;12.43;;;12.20;51.90;;;;;;5016030;28;20392;-63
2022/03/30 01:23:35;;;;;;;16.80;10.05;;;12.20;53.20;;;;;;5016032;28;20042;-63
2022/03/30 01:26:03;;;;;;;18.00;11.10;;;12.10;52.30;;;;;;5016088;28;20025;-63
2022/03/30 01:28:31;;;;;;;11.88;9.38;;;12.10;52.10;;;;;;5015801;28;20025;-62
2022/03/30 01:33:48;;;;;;;16.33;11.18;;;12.10;52.50;;;;;;5015883;28;20096;-62
2022/03/30 01:36:17;;;;;;;14.00;9.67;;;12.10;52.10;;;;;;5015548;28;20021;-62
2022/03/30 01:38:44;;;;;;;16.05;10.05;;;12.10;52.20;;;;;;5015433;28;20026;-63
2022/03/30 01:41:10;;;;;;;14.70;10.00;;;12.00;52.70;;;;;;5015641;28;20392;-63
2022/03/30 01:43:36;;;;;;;13.48;9.15;;;11.90;52.70;;;;;;5015281;28;20124;-63
2022/03/30 01:46:02;;;;;;;14.73;9.90;;;11.90;52.70;;;;;;5015304;28;20484;-62
2022/03/30 01:48:28;;;;;;;18.98;10.80;;;11.90;52.80;;;;;;5015226;28;20076;-63
2022/03/30 01:50:54;;;;;;;24.15;13.25;;;11.90;52.70;;;;;;5014348;28;20108;-62
2022/03/30 01:53:19;;;;;;;18.23;10.80;;;11.90;53.10;;;;;;5015168;28;20407;-63
2022/03/30 01:55:45;;;;;;;19.50;12.18;;;11.70;53.40;;;;;;5015123;28;20026;-63
2022/03/30 01:58:11;;;;;;;16.13;10.60;;;11.60;53.40;;;;;;5015095;28;20366;-62
2022/03/30 02:00:37;;;;;;;16.45;10.75;;;11.60;53.60;;;;;;5014583;28;20093;-62
2022/03/30 02:03:03;;;;;;;15.18;10.57;;;11.60;53.90;;;;;;5015213;28;20068;-62
2022/03/30 02:05:31;;;;;;;15.43;10.35;;;11.60;54.00;;;;;;5014995;28;20026;-63
2022/03/30 02:07:57;;;;;;;15.32;9.55;;;11.60;54.30;;;;;;5015089;28;20041;-63
2022/03/30 02:10:23;;;;;;;15.18;10.30;;;11.50;54.10;;;;;;5014880;28;20030;-62
2022/03/30 02:12:49;;;;;;;15.00;10.38;;;11.50;54.30;;;;;;5014922;28;20105;-63
2022/03/30 02:15:15;;;;;;;14.90;10.00;;;11.40;54.20;;;;;;5014539;28;20057;-62
2022/03/30 02:17:41;;;;;;;14.85;10.15;;;11.40;54.20;;;;;;5014677;28;20049;-62
2022/03/30 02:20:08;;;;;;;14.30;8.68;;;11.30;54.40;;;;;;5014601;28;20026;-62
2022/03/30 02:22:34;;;;;;;12.93;9.02;;;11.30;54.30;;;;;;5014607;28;20036;-62
2022/03/30 02:25:00;;;;;;;14.05;9.65;;;11.30;54.80;;;;;;5014629;28;20022;-61
2022/03/30 02:27:26;;;;;;;16.63;10.40;;;11.20;54.90;;;;;;5014583;28;20018;-61
2022/03/30 02:29:53;;;;;;;13.60;9.02;;;11.20;55.40;;;;;;5014370;28;20384;-62
2022/03/30 02:32:19;;;;;;;16.02;10.00;;;11.10;56.00;;;;;;5014483;28;20026;-62
2022/03/30 02:34:45;;;;;;;16.08;10.13;;;11.00;55.80;;;;;;5014472;28;20080;-62
2022/03/30 02:37:12;;;;;;;15.15;9.32;;;11.00;55.70;;;;;;5014612;28;20022;-63
2022/03/30 02:39:38;;;;;;;13.77;9.43;;;11.00;55.90;;;;;;5014281;28;20480;-63
2022/03/30 02:42:06;;;;;;;17.00;9.60;;;11.00;55.80;;;;;;5014611;28;20032;-62
2022/03/30 02:44:33;;;;;;;16.83;11.00;;;11.00;55.40;;;;;;5014048;28;20072;-61
2022/03/30 02:47:00;;;;;;;14.43;9.80;;;11.00;55.90;;;;;;5014351;28;20025;-63
2022/03/30 02:49:27;;;;;;;15.20;9.77;;;10.90;56.00;;;;;;5014223;28;20465;-62
2022/03/30 02:51:53;;;;;;;15.80;10.80;;;10.90;56.10;;;;;;5014165;28;20064;-62
2022/03/30 02:54:19;;;;;;;13.90;9.30;;;10.90;56.20;;;;;;5014232;28;20026;-62
2022/03/30 02:56:45;;;;;;;17.88;10.93;;;10.90;56.50;;;;;;5014077;28;20029;-62
2022/03/30 02:59:11;;;;;;;14.55;9.80;;;10.90;56.30;;;;;;5014062;28;20483;-63
2022/03/30 03:01:37;;;;;;;18.80;11.82;;;10.80;56.60;;;;;;5013845;28;20030;-63
2022/03/30 03:04:03;;;;;;;17.77;10.98;;;10.80;56.70;;;;;;5013957;28;20021;-62
2022/03/30 03:06:29;;;;;;;22.60;14.18;;;10.70;56.90;;;;;;5014177;28;20029;-63
2022/03/30 03:08:57;;;;;;;16.58;11.43;;;10.60;57.60;;;;;;5013752;28;20022;-63
2022/03/30 03:11:24;;;;;;;19.42;12.38;;;10.50;58.10;;;;;;5013947;28;20037;-62
2022/03/30 03:13:49;;;;;;;21.95;14.00;;;10.50;58.00;;;;;;5013588;28;20053;-62
2022/03/30 03:16:15;;;;;;;19.65;12.95;;;10.50;58.50;;;;;;5013498;28;20085;-61
2022/03/30 03:18:41;;;;;;;18.27;11.68;;;10.50;58.40;;;;;;5013724;28;20018;-62
2022/03/30 03:21:07;;;;;;;18.85;12.52;;;10.50;58.00;;;;;;5013534;28;20443;-62
2022/03/30 03:23:33;;;;;;;18.25;12.30;;;10.60;58.50;;;;;;5013560;28;20014;-63
2022/03/30 03:25:59;;;;;;;21.38;13.75;;;10.60;58.40;;;;;;5013659;28;20022;-62
2022/03/30 03:28:25;;;;;;;19.08;12.48;;;10.50;58.70;;;;;;5013402;28;20054;-62
2022/03/30 03:30:51;;;;;;;21.90;13.73;;;10.50;59.40;;;;;;5013795;28;20096;-62
2022/03/30 03:33:17;;;;;;;22.63;13.25;;;10.50;59.40;;;;;;5013567;28;20464;-63
2022/03/30 03:35:44;;;;;;;21.13;12.10;;;10.50;59.40;;;;;;5013571;28;20031;-62
2022/03/30 03:38:10;;;;;;;20.77;13.43;;;10.50;58.80;;;;;;5013766;28;20022;-63
2022/03/30 03:40:36;;;;;;;19.38;12.70;;;10.50;59.70;;;;;;5013623;28;20107;-63
2022/03/30 03:43:03;;;;;;;22.92;13.90;;;10.50;59.90;;;;;;5013295;28;20385;-63
2022/03/30 03:45:29;;;;;;;22.05;13.57;;;10.40;60.30;;;;;;5013567;28;20025;-63
2022/03/30 03:47:56;;;;;;;20.95;13.10;;;10.40;59.80;;;;;;5013392;28;20045;-62
2022/03/30 03:50:22;;;;;;;21.00;13.63;;;10.50;60.10;;;;;;5013626;28;20026;-62
2022/03/30 03:52:49;;;;;;;22.67;14.20;;;10.50;59.70;;;;;;5013493;28;20495;-62
2022/03/30 03:55:15;;;;;;;27.10;15.60;;;10.50;60.00;;;;;;5013336;28;20076;-62
2022/03/30 03:57:42;;;;;;;26.33;15.38;;;10.40;60.80;;;;;;5013539;28;20022;-62
2022/03/30 04:00:10;;;;;;;21.77;13.52;;;10.30;60.70;;;;;;5013486;28;20030;-62
2022/03/30 04:02:36;;;;;;;26.92;16.60;;;10.30;60.80;;;;;;5013482;28;20033;-63
2022/03/30 04:05:02;;;;;;;26.63;17.58;;;10.30;60.90;;;;;;5013330;28;20381;-62
2022/03/30 04:07:28;;;;;;;24.52;17.08;;;10.20;61.10;;;;;;5013326;28;20052;-62
2022/03/30 04:09:54;;;;;;;25.23;17.30;;;10.20;61.60;;;;;;5013196;28;20112;-62
2022/03/30 04:12:19;;;;;;;24.90;17.00;;;10.10;61.20;;;;;;5013442;28;20157;-63
2022/03/30 04:14:45;;;;;;;27.95;18.25;;;10.10;61.40;;;;;;5016910;28;20033;-63
2022/03/30 04:17:11;;;;;;;23.42;15.95;;;10.20;61.80;;;;;;5017373;28;20033;-62
2022/03/30 04:19:39;;;;;;;26.75;17.33;;;10.10;62.20;;;;;;5017031;28;20029;-61
2022/03/30 04:22:05;;;;;;;23.75;16.80;;;10.10;62.60;;;;;;5016968;28;20029;-63
2022/03/30 04:24:31;;;;;;;26.25;17.58;;;10.00;62.80;;;;;;5016848;28;20476;-62
2022/03/30 04:26:57;;;;;;;27.90;16.38;;;10.00;63.20;;;;;;5016723;28;20072;-61
2022/03/30 04:29:22;;;;;;;23.65;15.60;;;10.00;63.60;;;;;;5017021;28;20076;-62
2022/03/30 04:31:49;;;;;;;23.50;15.02;;;10.00;62.50;;;;;;5017132;28;20113;-63
2022/03/30 04:34:15;;;;;;;23.48;16.13;;;10.00;62.10;;;;;;5016767;28;20040;-61
2022/03/30 04:36:40;;;;;;;24.58;15.05;;;10.00;62.60;;;;;;5016762;28;20392;-62
2022/03/30 04:39:06;;;;;;;22.05;14.15;;;10.00;63.30;;;;;;5016693;28;20556;-63
2022/03/30 04:41:32;;;;;;;25.45;15.43;;;10.00;64.50;;;;;;5016394;28;20105;-61
2022/03/30 04:43:58;;;;;;;23.45;14.52;;;10.00;65.60;;;;;;5016861;28;20361;-62
2022/03/30 04:46:23;;;;;;;19.40;12.68;;;9.90;65.80;;;;;;5016878;28;20427;-62
2022/03/30 04:48:49;;;;;;;18.23;11.88;;;10.00;66.00;;;;;;5016485;28;20441;-62
2022/03/30 04:51:15;;;;;;;22.90;12.10;;;10.10;65.60;;;;;;5016578;28;20034;-62
2022/03/30 04:53:40;;;;;;;20.40;12.43;;;10.10;66.40;;;;;;5016348;28;20037;-62
2022/03/30 04:56:06;;;;;;;21.65;12.60;;;10.10;66.60;;;;;;5016282;28;20036;-62
2022/03/30 04:58:32;;;;;;;19.08;12.02;;;10.00;66.70;;;;;;5018112;28;20026;-62
2022/03/30 05:00:58;;;;;;;20.95;11.93;;;10.10;67.00;;;;;;5020911;28;20045;-60
2022/03/30 05:03:23;;;;;;;17.27;10.98;;;10.10;66.50;;;;;;5022596;28;20384;-60
2022/03/30 05:05:49;;;;;;;17.30;10.80;;;10.20;67.40;;;;;;5022440;28;20334;-60
2022/03/30 05:08:15;;;;;;;18.98;11.32;;;10.20;67.20;;;;;;5023743;28;20108;-59
2022/03/30 05:10:41;;;;;;;28.30;16.85;;;10.20;67.60;;;;;;5024853;28;20084;-59
2022/03/30 05:13:07;;;;;;;24.80;15.00;;;10.10;68.50;;;;;;5035535;28;20030;-61
2022/03/30 05:15:32;;;;;;;29.25;18.73;;;10.10;67.40;;;;;;5023923;28;20052;-60
2022/03/30 05:18:00;;;;;;;40.45;20.88;;;10.20;67.10;;;;;;5015788;28;20030;-60
2022/03/30 05:20:26;;;;;;;34.63;19.55;;;10.20;67.50;;;;;;5014737;28;20045;-59
2022/03/30 05:22:52;;;;;;;49.78;25.50;;;10.20;67.00;;;;;;5015615;28;20018;-60
2022/03/30 05:25:20;;;;;;;32.97;21.23;;;10.20;67.10;;;;;;5014418;28;20042;-60
2022/03/30 05:27:46;;;;;;;39.47;22.55;;;10.20;67.40;;;;;;5000849;28;20030;-59
2022/03/30 05:30:13;;;;;;;45.53;23.17;;;10.30;67.70;;;;;;5007748;28;20489;-59
2022/03/30 05:32:44;;;;;;;40.97;22.80;;;10.30;67.70;;;;;;4995877;28;20026;-59
2022/03/30 05:35:10;;;;;;;45.60;23.73;;;10.30;67.80;;;;;;5006453;28;20036;-58
2022/03/30 05:37:36;;;;;;;39.65;21.58;;;10.40;68.10;;;;;;5002691;28;20022;-60
2022/03/30 05:40:04;;;;;;;43.42;21.58;;;10.50;67.30;;;;;;5006466;28;20588;-58
2022/03/30 05:42:29;;;;;;;43.58;22.58;;;10.60;67.20;;;;;;5010812;28;20516;-60
2022/03/30 05:44:55;;;;;;;31.27;18.80;;;10.70;66.30;;;;;;5006616;28;20062;-60
2022/03/30 05:47:21;;;;;;;44.10;24.33;;;10.80;65.70;;;;;;5015492;28;20029;-58
2022/03/30 05:49:47;;;;;;;39.70;21.15;;;10.80;65.00;;;;;;5010655;28;20045;-60
2022/03/30 05:52:13;;;;;;;63.58;28.48;;;10.90;66.30;;;;;;4998398;28;20088;-59
2022/03/30 05:54:39;;;;;;;52.30;26.02;;;10.90;66.00;;;;;;5005221;28;20026;-60
2022/03/30 05:57:05;;;;;;;62.35;29.90;;;10.90;66.20;;;;;;5003675;28;20031;-57
2022/03/30 05:59:37;;;;;;;57.75;27.45;;;10.90;65.70;;;;;;4997219;28;20030;-60
2022/03/30 06:02:05;;;;;;;52.53;26.20;;;11.00;66.80;;;;;;5007196;28;20366;-60
2022/03/30 06:04:31;;;;;;;51.67;26.45;;;11.10;66.90;;;;;;5000686;28;20531;-58
2022/03/30 06:06:58;;;;;;;42.42;23.30;;;11.20;65.70;;;;;;5000811;28;20149;-60
2022/03/30 06:09:24;;;;;;;53.00;28.60;;;11.30;66.10;;;;;;5001967;28;20165;-60
2022/03/30 06:11:50;;;;;;;71.68;34.55;;;11.40;66.10;;;;;;4998463;28;20093;-58
2022/03/30 06:14:16;;;;;;;64.88;33.78;;;11.40;65.10;;;;;;5001692;28;20022;-58
2022/03/30 06:16:43;;;;;;;52.00;28.67;;;11.40;64.20;;;;;;5005974;28;20049;-59
2022/03/30 06:19:10;;;;;;;49.30;28.00;;;11.70;64.30;;;;;;4998786;28;20041;-59
2022/03/30 06:21:36;;;;;;;43.88;25.55;;;11.80;63.50;;;;;;4997397;28;20045;-59
2022/03/30 06:24:02;;;;;;;48.55;27.45;;;12.10;63.00;;;;;;4998192;28;20029;-59
2022/03/30 06:26:28;;;;;;;42.83;24.80;;;12.50;62.80;;;;;;5001123;28;20054;-59
2022/03/30 06:28:55;;;;;;;50.72;25.58;;;13.00;60.80;;;;;;4999254;28;20042;-59
2022/03/30 06:31:20;;;;;;;55.75;31.13;;;13.40;59.00;;;;;;5015910;28;20046;-58
2022/03/30 06:33:47;;;;;;;93.10;44.63;;;13.40;59.10;;;;;;5019424;28;20052;-58
2022/03/30 06:36:14;;;;;;;103.05;46.40;;;13.20;58.70;;;;;;5014877;28;20049;-59
2022/03/30 06:38:42;;;;;;;107.72;52.42;;;13.10;58.60;;;;;;4998857;28;20026;-59
2022/03/30 06:41:08;;;;;;;95.32;44.17;;;13.00;59.90;;;;;;4999899;28;20045;-58
2022/03/30 06:43:36;;;;;;;92.72;46.00;;;12.90;59.50;;;;;;5000317;28;20026;-57
2022/03/30 06:46:02;;;;;;;81.70;42.58;;;12.90;59.40;;;;;;5003249;28;20465;-59
2022/03/30 06:48:30;;;;;;;74.97;38.15;;;12.90;59.80;;;;;;5012678;28;20030;-57
2022/03/30 06:50:59;;;;;;;60.70;35.70;;;12.90;60.70;;;;;;5005200;28;20065;-58
2022/03/30 06:53:25;;;;;;;60.50;33.58;;;12.90;60.00;;;;;;5010452;28;20048;-59
2022/03/30 06:55:52;;;;;;;56.10;32.00;;;12.70;60.60;;;;;;5013381;28;20072;-60
2022/03/30 06:58:18;;;;;;;71.57;37.13;;;12.80;61.60;;;;;;5011940;28;20425;-59
2022/03/30 07:00:43;;;;;;;48.90;31.02;;;12.90;60.40;;;;;;5016476;28;20033;-57
2022/03/30 07:03:09;;;;;;;60.22;33.90;;;12.90;61.00;;;;;;5012718;28;20079;-57
2022/03/30 07:05:37;;;;;;;65.75;33.60;;;13.00;61.00;;;;;;5013203;28;20390;-60
2022/03/30 07:10:48;;;;;;;55.67;32.55;;;13.10;61.30;;;;;;5035874;28;20431;-59
2022/03/30 07:13:14;;;;;;;54.33;31.65;;;13.20;60.30;;;;;;5026041;28;20030;-60
2022/03/30 07:15:41;;;;;;;57.38;31.25;;;13.30;60.50;;;;;;5041667;28;20073;-59
2022/03/30 07:18:08;;;;;;;45.90;28.77;;;13.30;60.10;;;;;;5009963;28;20101;-61
2022/03/30 07:20:35;;;;;;;52.35;29.23;;;13.40;61.40;;;;;;5010392;28;20034;-59
2022/03/30 07:23:01;;;;;;;72.60;36.00;;;13.50;59.70;;;;;;5012142;28;20713;-57
2022/03/30 07:25:29;;;;;;;84.47;43.97;;;13.50;59.60;;;;;;5010822;28;20057;-58
2022/03/30 07:28:02;;;;;;;64.55;39.30;;;13.50;59.20;;;;;;5010216;28;20030;-61
2022/03/30 07:30:32;;;;;;;63.10;38.70;;;13.50;60.20;;;;;;5025880;28;20503;-63
2022/03/30 07:33:00;;;;;;;65.68;39.55;;;13.60;61.30;;;;;;5012541;28;20033;-61
2022/03/30 07:35:27;;;;;;;59.40;35.67;;;13.70;60.40;;;;;;5000942;28;20078;-61
2022/03/30 07:37:54;;;;;;;53.15;34.65;;;13.90;60.80;;;;;;5028178;28;20026;-61
2022/03/30 07:40:24;;;;;;;57.33;34.08;;;13.90;60.40;;;;;;5011176;28;20107;-61
2022/03/30 07:42:52;;;;;;;49.83;32.40;;;14.10;60.20;;;;;;5012533;28;20109;-60
2022/03/30 07:45:18;;;;;;;45.40;29.90;;;14.10;59.40;;;;;;4997357;28;20026;-60
2022/03/30 07:47:45;;;;;;;47.70;30.80;;;14.20;60.50;;;;;;4997838;28;20034;-61
2022/03/30 07:50:12;;;;;;;50.33;31.45;;;14.30;59.60;;;;;;5002197;28;20038;-59
2022/03/30 07:52:39;;;;;;;46.97;29.80;;;14.40;59.50;;;;;;5003282;28;20088;-59
2022/03/30 07:55:07;;;;;;;46.75;30.27;;;14.50;60.00;;;;;;5010346;28;20037;-62
2022/03/30 07:57:36;;;;;;;50.42;31.30;;;14.60;60.10;;;;;;5010829;28;20022;-62
2022/03/30 08:00:04;;;;;;;46.63;30.63;;;14.80;61.10;;;;;;5007496;28;20394;-69
2022/03/30 08:02:30;;;;;;;52.13;31.98;;;15.00;60.60;;;;;;5008353;28;20033;-64
2022/03/30 08:04:57;;;;;;;47.30;31.15;;;15.20;58.80;;;;;;5009510;28;20030;-64
2022/03/30 08:07:22;;;;;;;46.22;29.33;;;15.30;59.70;;;;;;5006412;28;20029;-64
2022/03/30 08:09:48;;;;;;;49.58;31.00;;;15.50;58.80;;;;;;5007172;28;20033;-65
2022/03/30 08:12:15;;;;;;;54.55;33.25;;;15.60;56.30;;;;;;5005932;28;20151;-61
2022/03/30 08:14:42;;;;;;;57.38;33.47;;;15.50;56.30;;;;;;5007628;28;20030;-65
2022/03/30 08:17:09;;;;;;;52.85;33.50;;;15.40;57.20;;;;;;5010913;28;20033;-60
2022/03/30 08:19:35;;;;;;;57.05;36.08;;;15.50;57.10;;;;;;5011750;28;20029;-62
2022/03/30 08:24:46;;;;;;;67.20;41.78;;;15.70;56.30;;;;;;5015181;28;20511;-61
2022/03/30 08:27:22;;;;;;;71.45;41.13;;;15.80;56.90;;;;;;5011693;28;20543;-62
2022/03/30 08:29:49;;;;;;;63.75;37.92;;;15.80;55.90;;;;;;5013083;28;20037;-66
2022/03/30 08:32:16;;;;;;;52.13;35.20;;;15.90;56.30;;;;;;5022729;28;20033;-66
2022/03/30 08:34:43;;;;;;;51.20;33.63;;;16.00;57.30;;;;;;5012381;28;20023;-67
2022/03/30 08:37:09;;;;;;;45.67;30.98;;;16.20;57.00;;;;;;5006367;28;20042;-64
2022/03/30 08:39:35;;;;;;;47.92;32.20;;;16.50;57.40;;;;;;5010990;28;20507;-62
2022/03/30 08:42:03;;;;;;;46.60;29.58;;;16.60;55.50;;;;;;5016119;28;20029;-61
2022/03/30 08:44:30;;;;;;;39.17;28.40;;;16.70;54.80;;;;;;5028009;28;20026;-64
2022/03/30 08:46:55;;;;;;;41.05;26.80;;;16.80;53.10;;;;;;5019976;28;20142;-63
2022/03/30 08:49:21;;;;;;;38.13;24.95;;;16.90;54.30;;;;;;5030842;28;20484;-62
2022/03/30 08:51:49;;;;;;;51.13;25.40;;;17.00;53.60;;;;;;5014233;28;20028;-64
2022/03/30 08:54:17;;;;;;;30.00;21.02;;;17.10;51.40;;;;;;5007855;28;20069;-60
2022/03/30 08:56:43;;;;;;;31.80;21.17;;;17.20;51.90;;;;;;5008494;28;20038;-64
2022/03/30 08:59:10;;;;;;;34.67;22.70;;;17.40;54.00;;;;;;5017154;28;20072;-60
2022/03/30 09:01:39;;;;;;;28.38;19.92;;;17.70;52.60;;;;;;5020075;28;20037;-60
2022/03/30 09:04:09;;;;;;;31.35;20.27;;;17.80;51.40;;;;;;5013440;28;20038;-62
2022/03/30 09:06:46;;;;;;;32.92;20.55;;;17.90;52.40;;;;;;5020140;28;20052;-60
2022/03/30 09:09:25;;;;;;;28.70;20.02;;;18.20;50.50;;;;;;5020334;28;20042;-60
2022/03/30 09:11:55;;;;;;;25.95;18.13;;;18.40;49.80;;;;;;5009392;28;20026;-61
2022/03/30 09:14:24;;;;;;;25.98;18.02;;;18.70;50.70;;;;;;5017079;28;20035;-61
2022/03/30 09:16:56;;;;;;;24.83;16.55;;;18.90;50.70;;;;;;5018331;28;20049;-61
2022/03/30 09:19:22;;;;;;;21.80;14.18;;;19.00;47.40;;;;;;5012190;28;20319;-60
2022/03/30 09:21:52;;;;;;;21.92;15.23;;;19.30;49.60;;;;;;5011800;28;20461;-61
2022/03/30 09:24:22;;;;;;;19.02;12.10;;;19.50;48.50;;;;;;5009565;28;20029;-61
2022/03/30 09:26:50;;;;;;;20.83;12.23;;;19.50;47.60;;;;;;5022033;28;20095;-61
2022/03/30 09:29:20;;;;;;;16.17;11.00;;;19.40;46.30;;;;;;5019805;28;20425;-60
2022/03/30 09:31:48;;;;;;;17.60;10.07;;;19.40;45.10;;;;;;5025024;28;20080;-58
2022/03/30 09:34:14;;;;;;;14.07;9.20;;;19.60;47.80;;;;;;5029307;28;20025;-61
2022/03/30 09:36:41;;;;;;;14.93;8.75;;;19.70;45.80;;;;;;5019038;28;20033;-60
2022/03/30 09:39:26;;;;;;;14.25;8.55;;;19.80;44.80;;;;;;5019180;28;20358;-59
2022/03/30 09:41:53;;;;;;;15.90;8.60;;;19.90;45.90;;;;;;5017083;28;20068;-62
2022/03/30 09:44:21;;;;;;;13.77;8.43;;;20.00;45.20;;;;;;5013666;28;20021;-61
2022/03/30 09:47:05;;;;;;;10.18;7.40;;;19.90;44.90;;;;;;5020004;28;20497;-61
2022/03/30 09:49:42;;;;;;;16.15;9.10;;;20.00;45.30;;;;;;5014011;28;20404;-62
2022/03/30 09:52:21;;;;;;;16.38;9.80;;;20.00;43.60;;;;;;5017500;28;20030;-61
2022/03/30 09:54:55;;;;;;;11.88;7.55;;;19.90;44.10;;;;;;5022541;28;20025;-58
2022/03/30 09:57:37;;;;;;;12.70;5.93;;;19.90;43.00;;;;;;5009960;28;20473;-58
2022/03/30 10:00:06;;;;;;;13.27;5.78;;;19.80;42.20;;;;;;5008721;28;20049;-55
2022/03/30 10:02:42;;;;;;;7.30;4.85;;;20.00;42.80;;;;;;5004613;28;20029;-62
2022/03/30 10:05:10;;;;;;;18.35;9.55;;;20.20;42.60;;;;;;5008651;28;20033;-64
2022/03/30 10:07:36;;;;;;;14.35;8.48;;;20.50;41.30;;;;;;5017538;28;20162;-58
2022/03/30 10:10:04;;;;;;;17.10;8.60;;;20.80;42.00;;;;;;5021505;28;20022;-57
2022/03/30 10:12:31;;;;;;;10.65;6.00;;;21.00;40.80;;;;;;5018275;28;20437;-58
2022/03/30 10:14:57;;;;;;;8.23;5.10;;;21.10;39.60;;;;;;5018213;28;20697;-61
2022/03/30 10:17:25;;;;;;;9.57;4.88;;;21.20;40.60;;;;;;5020503;28;20036;-61
2022/03/30 10:19:52;;;;;;;13.85;5.95;;;21.30;40.20;;;;;;5016271;28;20038;-62
2022/03/30 10:22:30;;;;;;;15.73;6.15;;;21.30;39.20;;;;;;5017335;28;20029;-54
2022/03/30 10:25:08;;;;;;;11.18;5.30;;;21.10;39.50;;;;;;5009079;28;20445;-54
2022/03/30 10:27:53;;;;;;;12.57;5.25;;;21.00;39.80;;;;;;5011540;28;20037;-55
2022/03/30 10:30:30;;;;;;;10.05;5.22;;;21.30;39.30;;;;;;5010623;28;20026;-63
2022/03/30 10:33:01;;;;;;;12.27;6.60;;;21.50;39.60;;;;;;5007496;28;20051;-61
2022/03/30 10:35:48;;;;;;;14.52;6.75;;;21.80;41.90;;;;;;5028345;28;20503;-61
2022/03/30 10:38:16;;;;;;;7.95;5.45;;;22.10;39.30;;;;;;5019782;28;20465;-62
2022/03/30 10:40:43;;;;;;;14.75;6.43;;;22.50;39.00;;;;;;5016769;28;20366;-63
2022/03/30 10:43:27;;;;;;;10.88;5.05;;;22.70;36.80;;;;;;5016217;28;20423;-62
2022/03/30 10:45:58;;;;;;;13.73;6.10;;;22.90;37.00;;;;;;5014790;28;20376;-61
2022/03/30 10:48:44;;;;;;;17.40;10.45;;;23.00;36.30;;;;;;5012796;28;20033;-63
2022/03/30 10:51:10;;;;;;;15.20;8.07;;;22.80;37.40;;;;;;5013776;28;20030;-62
2022/03/30 10:53:38;;;;;;;13.50;4.60;;;22.90;36.40;;;;;;5018287;28;20071;-59
2022/03/30 10:56:10;;;;;;;11.68;4.20;;;23.00;36.10;;;;;;5018334;28;20029;-64
2022/03/30 10:58:37;;;;;;;9.52;4.55;;;22.40;36.50;;;;;;5022922;28;20099;-62
2022/03/30 11:01:24;;;;;;;16.52;7.47;;;22.50;35.70;;;;;;5031272;28;20120;-64
2022/03/30 11:04:10;;;;;;;13.02;5.55;;;22.80;35.10;;;;;;5031212;28;20546;-62
2022/03/30 11:06:38;;;;;;;10.68;5.20;;;22.50;34.90;;;;;;5028388;28;20488;-64
2022/03/30 11:09:26;;;;;;;14.95;5.18;;;22.40;36.10;;;;;;5033039;28;20025;-62
2022/03/30 11:12:00;;;;;;;14.40;5.85;;;22.70;35.40;;;;;;5033233;28;20021;-61
2022/03/30 11:14:39;;;;;;;15.32;5.93;;;22.50;36.00;;;;;;5032574;28;20112;-62
2022/03/30 11:17:12;;;;;;;11.00;4.72;;;22.80;34.80;;;;;;5030746;28;20037;-64
2022/03/30 11:19:58;;;;;;;16.17;6.20;;;22.90;34.50;;;;;;5018446;28;20032;-63
2022/03/30 11:22:36;;;;;;;16.33;7.40;;;22.80;33.90;;;;;;5012398;28;20026;-63
2022/03/30 11:25:13;;;;;;;14.35;6.22;;;22.70;35.20;;;;;;5013388;28;20029;-67
2022/03/30 11:27:40;;;;;;;20.08;5.68;;;22.80;34.80;;;;;;5021178;28;20041;-65
2022/03/30 11:30:17;;;;;;;13.48;5.40;;;23.20;34.40;;;;;;5011814;28;20026;-63
2022/03/30 11:32:44;;;;;;;12.68;5.95;;;23.80;34.20;;;;;;5013586;28;20026;-63
2022/03/30 11:35:17;;;;;;;13.15;5.30;;;24.30;33.90;;;;;;5008207;28;20105;-61
2022/03/30 11:37:44;;;;;;;12.23;5.65;;;24.40;33.00;;;;;;5007758;28;20033;-66
2022/03/30 11:40:18;;;;;;;12.52;6.15;;;24.50;33.10;;;;;;5006937;28;20045;-66
2022/03/30 11:42:47;;;;;;;11.15;5.20;;;24.20;33.90;;;;;;5007406;28;20072;-61
2022/03/30 11:45:19;;;;;;;13.48;6.30;;;24.20;33.80;;;;;;5010198;28;20022;-63
2022/03/30 11:47:54;;;;;;;17.88;6.65;;;24.30;33.30;;;;;;5020421;28;20026;-63
2022/03/30 11:50:34;;;;;;;16.98;7.05;;;24.30;33.60;;;;;;5004649;28;20022;-60
2022/03/30 11:53:05;;;;;;;11.05;5.93;;;24.50;34.00;;;;;;5021153;28;20025;-61
2022/03/30 11:55:38;;;;;;;12.02;5.57;;;24.70;32.50;;;;;;5030916;28;20041;-63
2022/03/30 11:58:05;;;;;;;11.27;5.17;;;24.70;32.30;;;;;;5023399;28;20453;-62
2022/03/30 12:00:32;;;;;;;14.63;7.03;;;24.70;32.20;;;;;;5018639;28;20022;-63
2022/03/30 12:03:00;;;;;;;13.32;5.13;;;24.60;33.20;;;;;;5017084;28;20044;-63
2022/03/30 12:05:26;;;;;;;14.57;6.32;;;24.40;32.00;;;;;;5030320;28;20029;-65
2022/03/30 12:07:57;;;;;;;16.90;7.57;;;24.40;32.20;;;;;;5031993;28;20032;-62
2022/03/30 12:10:33;;;;;;;13.30;5.80;;;24.20;32.70;;;;;;5032058;28;20026;-65
2022/03/30 12:13:00;;;;;;;15.10;5.80;;;24.10;32.90;;;;;;5016571;28;20030;-65
2022/03/30 12:15:26;;;;;;;13.30;5.53;;;24.10;32.20;;;;;;5009470;28;20520;-63
2022/03/30 12:17:59;;;;;;;12.45;5.10;;;24.10;32.40;;;;;;5005484;28;20476;-67
2022/03/30 12:20:33;;;;;;;12.43;6.10;;;23.80;32.70;;;;;;5011883;28;20492;-66
2022/03/30 12:23:09;;;;;;;13.43;6.00;;;23.90;32.10;;;;;;5012406;28;20022;-68
2022/03/30 12:25:40;;;;;;;16.95;5.38;;;23.80;32.50;;;;;;5012294;28;20052;-62
2022/03/30 12:28:06;;;;;;;16.13;5.50;;;23.60;32.80;;;;;;5012079;28;20104;-62
2022/03/30 12:30:36;;;;;;;12.93;5.13;;;23.40;32.80;;;;;;5010921;28;20551;-64
2022/03/30 12:33:02;;;;;;;18.83;6.57;;;23.30;32.90;;;;;;5009183;28;20018;-64
2022/03/30 12:35:34;;;;;;;14.20;5.35;;;23.10;32.80;;;;;;5014175;28;20022;-62
2022/03/30 12:38:13;;;;;;;16.17;5.22;;;23.20;33.10;;;;;;5016041;28;20030;-64
2022/03/30 12:40:40;;;;;;;11.50;4.50;;;23.10;33.40;;;;;;5013607;28;20100;-64
2022/03/30 12:43:07;;;;;;;14.60;4.32;;;22.90;33.00;;;;;;5011378;28;20607;-63